Time;durP1;ratioP1;P1;durP2;ratioP2;P2;SDS_P1;SDS_P2;PMS_P1;PMS_P2;Temp;Humidity;BMP_temperature;BMP_pressure;BME280_temperature;BME280_humidity;BME280_pressure;Samples;Min_cycle;Max_cycle;Signal;HPM_P1;HPM_P2
2022/12/02 00:02:24;;;;;;;0.50;0.50;;;2.40;99.90;;;;;;5005126;28;20179;-76
2022/12/02 00:05:14;;;;;;;0.70;0.70;;;2.50;99.90;;;;;;5020764;28;20043;-76
2022/12/02 00:07:42;;;;;;;0.60;0.60;;;2.50;99.90;;;;;;5022700;28;20038;-75
2022/12/02 00:10:20;;;;;;;0.80;0.80;;;2.50;99.90;;;;;;4989162;28;20126;-76
2022/12/02 00:12:46;;;;;;;0.73;0.73;;;2.40;99.90;;;;;;5018131;28;20092;-76
2022/12/02 00:15:40;;;;;;;0.70;0.70;;;2.40;99.90;;;;;;5017400;28;20982;-77
2022/12/02 00:18:14;;;;;;;0.60;0.60;;;2.50;99.90;;;;;;5002632;28;20668;-75
2022/12/02 00:20:40;;;;;;;0.60;0.60;;;2.40;99.90;;;;;;5003720;28;22149;-75
2022/12/02 00:23:07;;;;;;;0.70;0.70;;;2.50;99.90;;;;;;5001168;28;20128;-75
2022/12/02 00:25:33;;;;;;;;;;;2.50;99.90;;;;;;5004892;28;20128;-78
2022/12/02 00:27:59;;;;;;;0.60;0.60;;;2.50;99.90;;;;;;4999096;28;19971;-75
2022/12/02 00:30:25;;;;;;;0.50;0.50;;;2.50;99.90;;;;;;4999729;28;20053;-77
2022/12/02 00:32:51;;;;;;;0.70;0.70;;;2.50;99.90;;;;;;5017220;28;20046;-75
2022/12/02 00:35:17;;;;;;;0.60;0.60;;;2.50;99.90;;;;;;5020299;28;20038;-76
2022/12/02 00:37:42;;;;;;;0.70;0.70;;;2.50;99.90;;;;;;5010912;28;20410;-76
2022/12/02 00:40:11;;;;;;;0.70;0.70;;;2.50;99.90;;;;;;5005680;28;20176;-78
2022/12/02 00:42:43;;;;;;;0.60;0.60;;;2.60;99.90;;;;;;4986375;28;20066;-77
2022/12/02 00:47:55;;;;;;;0.50;0.50;;;2.50;99.90;;;;;;4998982;28;20057;-75
2022/12/02 00:50:20;;;;;;;0.60;0.60;;;2.50;99.90;;;;;;4985811;28;20041;-80
2022/12/02 00:52:46;;;;;;;1.17;1.08;;;2.60;99.90;;;;;;4984926;28;20046;-79
2022/12/02 00:55:12;;;;;;;0.68;0.68;;;2.50;99.90;;;;;;5001819;28;20389;-77
2022/12/02 00:57:38;;;;;;;0.50;0.50;;;2.50;99.90;;;;;;5000980;28;20041;-77
2022/12/02 01:00:05;;;;;;;2.28;1.70;;;2.50;99.90;;;;;;5018892;28;20045;-75
2022/12/02 01:02:31;;;;;;;0.50;0.50;;;2.50;99.90;;;;;;4984998;28;20160;-77
2022/12/02 01:04:57;;;;;;;0.70;0.70;;;2.50;99.90;;;;;;5001363;28;20097;-78
2022/12/02 01:07:26;;;;;;;0.63;0.63;;;2.50;99.90;;;;;;5002926;28;20046;-77
2022/12/02 01:09:52;;;;;;;0.60;0.60;;;2.50;99.90;;;;;;5003524;28;20057;-79
2022/12/02 01:12:18;;;;;;;0.70;0.70;;;2.50;99.90;;;;;;5008863;28;20066;-77
2022/12/02 01:14:43;;;;;;;0.73;0.73;;;2.50;99.90;;;;;;4989633;28;20056;-76
2022/12/02 01:17:09;;;;;;;0.60;0.60;;;2.50;99.90;;;;;;5008588;28;20038;-76
2022/12/02 01:19:40;;;;;;;0.60;0.60;;;2.60;99.90;;;;;;5009338;28;20045;-76
2022/12/02 01:22:07;;;;;;;0.60;0.60;;;2.60;99.90;;;;;;4992966;28;20041;-77
2022/12/02 01:24:33;;;;;;;0.80;0.80;;;2.60;99.90;;;;;;5009752;28;20136;-76
2022/12/02 01:26:58;;;;;;;0.65;0.65;;;2.60;99.90;;;;;;5010187;28;20133;-80
2022/12/02 01:29:24;;;;;;;0.68;0.68;;;2.50;99.90;;;;;;5006458;28;20132;-77
2022/12/02 01:31:50;;;;;;;0.70;0.70;;;2.50;99.90;;;;;;5011207;28;20458;-76
2022/12/02 01:34:15;;;;;;;0.70;0.70;;;2.50;99.90;;;;;;5011904;28;20048;-77
2022/12/02 01:36:41;;;;;;;0.77;0.77;;;2.40;99.90;;;;;;5007357;28;20037;-75
2022/12/02 01:39:07;;;;;;;0.80;0.80;;;2.50;99.90;;;;;;5006044;28;20639;-77
2022/12/02 01:41:32;;;;;;;0.50;0.50;;;2.50;99.90;;;;;;4996638;28;20061;-76
2022/12/02 01:43:58;;;;;;;0.50;0.50;;;2.50;99.90;;;;;;4989687;28;20095;-77
2022/12/02 01:46:24;;;;;;;0.70;0.70;;;2.60;99.90;;;;;;5008768;28;20042;-78
2022/12/02 01:48:51;;;;;;;0.80;0.80;;;2.50;99.90;;;;;;5021609;28;20038;-76
2022/12/02 01:51:22;;;;;;;0.70;0.70;;;2.50;99.90;;;;;;4991367;28;20137;-75
2022/12/02 01:53:48;;;;;;;0.60;0.60;;;2.50;99.90;;;;;;5008036;28;20125;-80
2022/12/02 01:56:14;;;;;;;0.70;0.70;;;2.50;99.90;;;;;;5001123;28;20053;-78
2022/12/02 01:58:39;;;;;;;0.70;0.70;;;2.40;99.90;;;;;;5006140;28;20480;-77
2022/12/02 02:01:25;;;;;;;0.70;0.70;;;2.50;99.90;;;;;;5009418;28;20088;-77
2022/12/02 02:03:51;;;;;;;0.60;0.60;;;2.40;99.90;;;;;;5006685;28;20085;-77
2022/12/02 02:06:17;;;;;;;0.77;0.77;;;2.40;99.90;;;;;;5008391;28;20089;-79
2022/12/02 02:08:43;;;;;;;0.70;0.70;;;2.40;99.90;;;;;;5008666;28;20146;-78
2022/12/02 02:11:08;;;;;;;0.60;0.60;;;2.50;99.90;;;;;;5007771;28;20782;-80
2022/12/02 02:13:34;;;;;;;0.65;0.65;;;2.40;99.90;;;;;;5006023;28;20775;-79
2022/12/02 02:16:00;;;;;;;0.95;0.95;;;2.40;99.90;;;;;;5008589;28;20060;-76
2022/12/02 02:18:25;;;;;;;0.80;0.80;;;2.40;99.90;;;;;;5022216;28;20039;-77
2022/12/02 02:20:55;;;;;;;0.63;0.63;;;2.40;99.90;;;;;;5007285;28;20063;-79
2022/12/02 02:23:27;;;;;;;0.68;0.68;;;2.40;99.90;;;;;;5008615;28;20099;-77
2022/12/02 02:25:56;;;;;;;0.68;0.68;;;2.40;99.90;;;;;;5007371;28;20386;-76
2022/12/02 02:28:23;;;;;;;0.60;0.60;;;2.40;99.90;;;;;;5005929;28;20050;-79
2022/12/02 02:30:52;;;;;;;0.60;0.60;;;2.40;99.90;;;;;;5008175;28;20042;-77
2022/12/02 02:33:26;;;;;;;0.70;0.70;;;2.40;99.90;;;;;;5008590;28;20092;-76
2022/12/02 02:35:52;;;;;;;0.60;0.60;;;2.50;99.90;;;;;;5007669;28;20034;-77
2022/12/02 02:38:22;;;;;;;0.63;0.63;;;2.40;99.90;;;;;;5007923;28;20041;-80
2022/12/02 02:40:48;;;;;;;0.80;0.80;;;2.50;99.90;;;;;;5007665;28;20049;-78
2022/12/02 02:43:16;;;;;;;0.60;0.60;;;2.50;99.90;;;;;;4993789;28;20050;-80
2022/12/02 02:45:42;;;;;;;0.70;0.70;;;2.40;99.90;;;;;;5005414;28;20048;-79
2022/12/02 02:48:11;;;;;;;0.55;0.55;;;2.40;99.90;;;;;;4990675;28;20045;-77
2022/12/02 02:50:39;;;;;;;0.60;0.60;;;2.50;99.90;;;;;;5008682;28;20118;-78
2022/12/02 02:53:05;;;;;;;0.70;0.70;;;2.50;99.90;;;;;;5002420;28;20128;-78
2022/12/02 02:55:32;;;;;;;0.60;0.60;;;2.40;99.90;;;;;;5003579;28;20054;-78
2022/12/02 02:58:15;;;;;;;0.60;0.60;;;2.40;99.90;;;;;;5009438;28;20455;-77
2022/12/02 03:00:51;;;;;;;1.60;1.55;;;2.40;99.90;;;;;;5004448;28;20030;-78
2022/12/02 03:03:20;;;;;;;0.70;0.70;;;2.30;99.90;;;;;;5004647;28;20100;-78
2022/12/02 03:05:46;;;;;;;0.70;0.70;;;2.30;99.90;;;;;;5004032;28;21835;-80
2022/12/02 03:08:12;;;;;;;0.52;0.52;;;2.30;99.90;;;;;;5005967;28;20100;-77
2022/12/02 03:10:40;;;;;;;0.70;0.70;;;2.20;99.90;;;;;;5006146;28;20475;-76
2022/12/02 03:13:13;;;;;;;0.70;0.70;;;2.30;99.90;;;;;;5007857;28;20452;-80
2022/12/02 03:15:40;;;;;;;0.70;0.70;;;2.20;99.90;;;;;;5007889;28;20046;-79
2022/12/02 03:18:06;;;;;;;0.60;0.60;;;2.20;99.90;;;;;;4992848;28;20033;-77
2022/12/02 03:20:38;;;;;;;0.70;0.70;;;2.40;99.90;;;;;;4989796;28;20076;-77
2022/12/02 03:23:04;;;;;;;0.60;0.60;;;2.10;99.90;;;;;;5007761;28;20053;-77
2022/12/02 03:25:32;;;;;;;0.60;0.60;;;2.10;99.90;;;;;;5003203;28;20128;-77
2022/12/02 03:27:58;;;;;;;0.60;0.60;;;2.10;99.90;;;;;;4990918;28;20061;-78
2022/12/02 03:30:24;;;;;;;;;;;2.10;99.90;;;;;;5006826;28;20498;-78
2022/12/02 03:32:49;;;;;;;0.70;0.70;;;2.00;99.90;;;;;;5008625;28;19922;-76
2022/12/02 03:35:15;;;;;;;0.60;0.60;;;2.00;99.90;;;;;;5006080;28;20041;-76
2022/12/02 03:37:41;;;;;;;1.63;1.52;;;2.00;99.90;;;;;;4990677;28;20454;-76
2022/12/02 03:40:08;;;;;;;0.60;0.60;;;2.00;99.90;;;;;;4989759;28;20049;-80
2022/12/02 03:42:34;;;;;;;0.70;0.70;;;2.00;99.90;;;;;;5007376;28;20407;-76
2022/12/02 03:45:00;;;;;;;0.70;0.70;;;2.00;99.90;;;;;;5007766;28;20046;-78
2022/12/02 03:47:26;;;;;;;0.70;0.70;;;2.00;99.90;;;;;;5005346;28;20042;-77
2022/12/02 03:49:52;;;;;;;0.73;0.73;;;1.90;99.90;;;;;;5006761;28;20120;-77
2022/12/02 03:52:18;;;;;;;0.63;0.63;;;1.90;99.90;;;;;;5005315;28;20132;-77
2022/12/02 03:54:44;;;;;;;0.70;0.70;;;1.90;99.90;;;;;;5008793;28;20060;-75
2022/12/02 03:57:10;;;;;;;0.60;0.60;;;1.90;99.90;;;;;;5006135;28;20046;-77
2022/12/02 03:59:37;;;;;;;0.70;0.70;;;2.00;99.90;;;;;;5006419;28;20368;-76
2022/12/02 04:02:03;;;;;;;0.70;0.70;;;2.00;99.90;;;;;;5004656;28;20141;-76
2022/12/02 04:04:35;;;;;;;0.68;0.68;;;2.00;99.90;;;;;;4990618;28;20193;-77
2022/12/02 04:07:00;;;;;;;0.50;0.50;;;2.00;99.90;;;;;;4989247;28;20145;-76
2022/12/02 04:09:26;;;;;;;0.70;0.70;;;2.00;99.90;;;;;;5006165;28;20034;-76
2022/12/02 04:11:52;;;;;;;0.88;0.88;;;2.00;99.90;;;;;;5008221;28;20084;-78
2022/12/02 04:14:17;;;;;;;0.60;0.60;;;2.00;99.90;;;;;;5005531;28;20038;-76
2022/12/02 04:16:43;;;;;;;;;;;2.20;99.90;;;;;;5006126;28;20052;-75
2022/12/02 04:19:09;;;;;;;0.70;0.70;;;2.10;99.90;;;;;;5007047;28;19925;-78
2022/12/02 04:21:35;;;;;;;0.63;0.63;;;2.10;99.90;;;;;;5007710;28;20104;-77
2022/12/02 04:24:01;;;;;;;0.80;0.80;;;2.10;99.90;;;;;;5011296;28;20038;-78
2022/12/02 04:26:27;;;;;;;0.70;0.70;;;2.10;99.90;;;;;;5011316;28;20141;-77
2022/12/02 04:28:53;;;;;;;0.57;0.57;;;2.10;99.90;;;;;;5007908;28;20072;-79
2022/12/02 04:31:24;;;;;;;1.95;1.85;;;2.10;99.90;;;;;;5014373;28;20479;-77
2022/12/02 04:33:56;;;;;;;0.60;0.60;;;2.10;99.90;;;;;;5000178;28;20049;-77
2022/12/02 04:36:21;;;;;;;0.60;0.60;;;2.10;99.90;;;;;;5000834;28;20053;-77
2022/12/02 04:38:53;;;;;;;0.75;0.75;;;2.10;99.90;;;;;;4996273;28;20116;-76
2022/12/02 04:41:18;;;;;;;0.80;0.80;;;2.10;99.90;;;;;;5014313;28;20042;-76
2022/12/02 04:43:44;;;;;;;0.60;0.60;;;2.10;99.90;;;;;;5018781;28;20076;-78
2022/12/02 04:46:10;;;;;;;0.50;0.50;;;2.10;99.90;;;;;;5014783;28;20065;-78
2022/12/02 04:48:35;;;;;;;0.70;0.70;;;2.10;99.90;;;;;;5015552;28;20422;-76
2022/12/02 04:51:01;;;;;;;0.57;0.57;;;2.10;99.90;;;;;;5013493;28;20523;-77
2022/12/02 04:53:28;;;;;;;0.70;0.70;;;2.10;99.90;;;;;;5016768;28;20427;-75
2022/12/02 04:55:54;;;;;;;0.60;0.60;;;2.00;99.90;;;;;;5026274;28;20041;-76
2022/12/02 04:58:19;;;;;;;0.70;0.70;;;2.00;99.90;;;;;;5010141;28;20546;-77
2022/12/02 05:00:45;;;;;;;0.65;0.65;;;2.00;99.90;;;;;;4995801;28;20045;-77
2022/12/02 05:03:12;;;;;;;0.50;0.50;;;2.00;99.90;;;;;;5009036;28;20100;-76
2022/12/02 05:05:38;;;;;;;0.70;0.70;;;2.00;99.90;;;;;;5011458;28;20045;-75
2022/12/02 05:08:04;;;;;;;3.13;3.03;;;2.30;99.90;;;;;;5006771;28;20144;-76
2022/12/02 05:10:30;;;;;;;;;;;2.00;99.90;;;;;;5011343;28;20088;-78
2022/12/02 05:12:56;;;;;;;0.60;0.60;;;2.00;99.90;;;;;;5014284;28;19925;-76
2022/12/02 05:15:21;;;;;;;0.70;0.70;;;2.00;99.90;;;;;;5000482;28;20446;-76
2022/12/02 05:17:47;;;;;;;0.70;0.70;;;2.00;99.90;;;;;;5009963;28;20460;-77
2022/12/02 05:20:13;;;;;;;0.63;0.63;;;1.90;99.90;;;;;;5014523;28;20042;-76
2022/12/02 05:22:40;;;;;;;0.50;0.50;;;1.90;99.90;;;;;;4993410;28;20104;-76
2022/12/02 05:25:06;;;;;;;0.55;0.55;;;2.00;99.90;;;;;;5010143;28;20046;-76
2022/12/02 05:27:38;;;;;;;0.50;0.50;;;2.00;99.90;;;;;;5024466;28;20061;-78
2022/12/02 05:30:05;;;;;;;1.65;1.55;;;2.00;99.90;;;;;;5016435;28;20392;-77
2022/12/02 05:32:31;;;;;;;0.68;0.68;;;1.90;99.90;;;;;;5029614;28;20050;-77
2022/12/02 05:34:57;;;;;;;0.50;0.50;;;2.00;99.90;;;;;;5028683;28;20091;-75
2022/12/02 05:37:23;;;;;;;0.60;0.60;;;1.90;99.90;;;;;;5029082;28;20116;-74
2022/12/02 05:39:48;;;;;;;0.70;0.70;;;2.00;99.90;;;;;;5013773;28;20141;-76
2022/12/02 05:42:14;;;;;;;0.70;0.70;;;1.90;99.90;;;;;;5026905;28;20398;-77
2022/12/02 05:44:43;;;;;;;0.70;0.70;;;1.90;99.90;;;;;;5021358;28;20041;-76
2022/12/02 05:47:12;;;;;;;0.55;0.55;;;1.90;99.90;;;;;;5018291;28;20066;-78
2022/12/02 05:49:39;;;;;;;0.63;0.63;;;1.90;99.90;;;;;;5014281;28;20034;-77
2022/12/02 05:52:26;;;;;;;0.70;0.70;;;1.90;99.90;;;;;;5012165;28;20042;-78
2022/12/02 05:54:57;;;;;;;0.70;0.70;;;1.90;99.90;;;;;;4994749;28;20427;-76
2022/12/02 05:57:28;;;;;;;0.68;0.68;;;1.90;99.90;;;;;;5010650;28;20045;-78
2022/12/02 06:00:16;;;;;;;0.70;0.70;;;1.90;99.90;;;;;;5024485;28;20073;-77
2022/12/02 06:02:51;;;;;;;0.65;0.65;;;2.00;99.90;;;;;;5019731;28;20049;-77
2022/12/02 06:05:32;;;;;;;0.60;0.60;;;2.00;99.90;;;;;;5027714;28;20039;-76
2022/12/02 06:08:07;;;;;;;2.15;0.98;;;1.90;99.90;;;;;;5014704;28;20049;-77
2022/12/02 06:10:33;;;;;;;0.60;0.60;;;2.00;99.90;;;;;;5014506;28;20045;-79
2022/12/02 06:13:01;;;;;;;;;;;2.00;99.90;;;;;;5025734;28;20041;-77
2022/12/02 06:15:36;;;;;;;0.60;0.60;;;1.90;99.90;;;;;;5013520;28;20007;-76
2022/12/02 06:18:09;;;;;;;0.80;0.80;;;2.00;99.90;;;;;;5002715;28;20209;-77
2022/12/02 06:20:35;;;;;;;0.70;0.70;;;2.00;99.90;;;;;;5008852;28;20370;-75
2022/12/02 06:23:02;;;;;;;0.70;0.70;;;1.90;99.90;;;;;;5018945;28;20049;-76
2022/12/02 06:25:31;;;;;;;0.70;0.70;;;1.90;99.90;;;;;;5026630;28;20077;-77
2022/12/02 06:28:16;;;;;;;0.70;0.70;;;2.00;99.90;;;;;;5010371;28;20057;-76
2022/12/02 06:30:42;;;;;;;0.60;0.60;;;1.90;99.90;;;;;;5007290;28;20053;-75
2022/12/02 06:33:19;;;;;;;0.68;0.68;;;2.00;99.90;;;;;;5013528;28;20056;-78
2022/12/02 06:35:45;;;;;;;3.33;1.38;;;2.00;99.90;;;;;;5023288;28;20048;-77
2022/12/02 06:38:27;;;;;;;0.60;0.60;;;2.10;99.90;;;;;;5028371;28;20453;-78
2022/12/02 06:40:52;;;;;;;0.95;0.95;;;2.00;99.90;;;;;;5027033;28;20044;-76
2022/12/02 06:43:28;;;;;;;0.60;0.60;;;2.00;99.90;;;;;;5000541;28;20124;-77
2022/12/02 06:45:54;;;;;;;0.68;0.68;;;2.40;99.90;;;;;;5015551;28;20108;-77
2022/12/02 06:48:26;;;;;;;0.95;0.95;;;2.00;99.90;;;;;;5025033;28;20037;-79
2022/12/02 06:50:55;;;;;;;0.70;0.70;;;2.00;99.90;;;;;;5015788;28;20049;-76
2022/12/02 06:53:44;;;;;;;0.63;0.63;;;2.10;99.90;;;;;;5028402;28;20112;-75
2022/12/02 06:56:16;;;;;;;0.60;0.60;;;2.10;99.90;;;;;;5009668;28;20045;-79
2022/12/02 06:58:43;;;;;;;0.65;0.65;;;2.10;99.90;;;;;;4995487;28;20091;-76
2022/12/02 07:01:20;;;;;;;0.77;0.77;;;2.10;99.90;;;;;;5023962;28;20132;-76
2022/12/02 07:04:07;;;;;;;0.70;0.70;;;2.10;99.90;;;;;;5026045;28;20217;-76
2022/12/02 07:06:42;;;;;;;0.90;0.90;;;2.10;99.90;;;;;;5018841;28;20132;-81
2022/12/02 07:09:30;;;;;;;0.70;0.70;;;2.10;99.90;;;;;;5001628;28;20053;-81
2022/12/02 07:11:58;;;;;;;0.80;0.80;;;2.20;99.90;;;;;;5016419;28;20068;-79
2022/12/02 07:14:33;;;;;;;0.60;0.60;;;2.20;99.90;;;;;;5008969;28;20048;-78
2022/12/02 07:17:08;;;;;;;0.68;0.68;;;2.20;99.90;;;;;;5011458;28;20208;-79
2022/12/02 07:19:40;;;;;;;1.00;1.00;;;2.30;99.90;;;;;;5015772;28;20068;-79
2022/12/02 07:22:39;;;;;;;0.80;0.70;;;2.30;99.90;;;;;;5012365;28;20034;-78
2022/12/02 07:25:32;;;;;;;1.15;1.15;;;2.30;99.90;;;;;;5021605;28;20045;-82
2022/12/02 07:27:59;;;;;;;0.73;0.73;;;2.40;99.90;;;;;;5015375;28;20049;-77
2022/12/02 07:30:32;;;;;;;0.60;0.60;;;2.40;99.90;;;;;;5033790;28;20062;-80
2022/12/02 07:32:59;;;;;;;0.70;0.70;;;2.40;99.90;;;;;;5019895;28;20041;-79
2022/12/02 07:35:25;;;;;;;0.75;0.75;;;3.20;99.90;;;;;;4990836;28;20042;-82
2022/12/02 07:37:51;;;;;;;0.77;0.77;;;2.40;99.90;;;;;;4987894;28;20499;-79
2022/12/02 07:40:18;;;;;;;0.70;0.70;;;2.40;99.90;;;;;;5021199;28;20399;-80
2022/12/02 07:42:44;;;;;;;0.70;0.70;;;2.40;99.90;;;;;;5023099;28;20463;-80
2022/12/02 07:45:12;;;;;;;2.47;1.50;;;2.40;99.90;;;;;;5005326;28;20088;-81
2022/12/02 07:47:38;;;;;;;0.93;0.93;;;2.40;99.90;;;;;;4987927;28;20141;-79
2022/12/02 07:50:05;;;;;;;0.65;0.65;;;2.40;99.90;;;;;;5021566;28;20088;-81
2022/12/02 07:52:30;;;;;;;0.70;0.70;;;2.40;99.90;;;;;;5004975;28;20037;-79
2022/12/02 07:54:56;;;;;;;0.95;0.95;;;2.40;99.90;;;;;;5003530;28;20518;-80
2022/12/02 07:57:22;;;;;;;1.85;1.75;;;2.40;99.90;;;;;;5006782;28;20131;-80
2022/12/02 07:59:48;;;;;;;0.70;0.70;;;2.40;99.90;;;;;;5022906;28;20049;-82
2022/12/02 08:02:13;;;;;;;1.17;1.08;;;2.70;99.90;;;;;;4999893;28;20120;-82
2022/12/02 08:04:39;;;;;;;0.60;0.60;;;2.40;99.90;;;;;;5013250;28;20052;-81
2022/12/02 08:07:05;;;;;;;0.70;0.70;;;2.40;99.90;;;;;;5001949;28;20041;-81
2022/12/02 08:09:31;;;;;;;0.60;0.60;;;2.40;99.90;;;;;;5032052;28;20045;-80
2022/12/02 08:11:56;;;;;;;0.55;0.55;;;2.40;99.90;;;;;;5031807;28;20029;-82
2022/12/02 08:14:22;;;;;;;0.93;0.93;;;2.30;99.90;;;;;;5018397;28;20046;-79
2022/12/02 08:16:48;;;;;;;0.70;0.70;;;2.30;99.90;;;;;;5007372;28;20130;-79
2022/12/02 08:19:14;;;;;;;0.60;0.60;;;2.30;99.90;;;;;;4991814;28;20049;-81
2022/12/02 08:21:40;;;;;;;0.60;0.60;;;2.20;99.90;;;;;;5020233;28;20111;-79
2022/12/02 08:24:07;;;;;;;0.80;0.80;;;2.20;99.90;;;;;;5021173;28;20052;-79
2022/12/02 08:26:33;;;;;;;;;;;2.10;99.90;;;;;;5005821;28;20084;-80
2022/12/02 08:29:02;;;;;;;0.70;0.70;;;2.10;99.90;;;;;;5022037;28;19917;-79
2022/12/02 08:31:28;;;;;;;0.60;0.60;;;2.10;99.90;;;;;;5032220;28;20075;-81
2022/12/02 08:33:54;;;;;;;0.60;0.60;;;2.10;99.90;;;;;;5020718;28;20112;-81
2022/12/02 08:36:20;;;;;;;0.55;0.55;;;2.10;99.90;;;;;;5030797;28;20034;-81
2022/12/02 08:38:46;;;;;;;1.40;1.40;;;2.10;99.90;;;;;;5010668;28;20053;-83
2022/12/02 08:41:13;;;;;;;0.68;0.68;;;2.00;99.90;;;;;;5014488;28;20503;-81
2022/12/02 08:43:38;;;;;;;0.60;0.60;;;2.00;99.90;;;;;;5016396;28;20037;-82
2022/12/02 08:46:06;;;;;;;0.60;0.60;;;2.00;99.90;;;;;;5024984;28;20044;-81
2022/12/02 08:48:32;;;;;;;0.70;0.70;;;1.90;99.90;;;;;;5014193;28;20156;-80
2022/12/02 08:50:58;;;;;;;0.63;0.63;;;1.90;99.90;;;;;;5009943;28;20085;-81
2022/12/02 08:53:23;;;;;;;0.95;0.95;;;1.90;99.90;;;;;;5006887;28;20045;-81
2022/12/02 08:55:49;;;;;;;0.80;0.80;;;1.90;99.90;;;;;;5011604;28;20037;-82
2022/12/02 08:58:15;;;;;;;0.70;0.70;;;1.90;99.90;;;;;;5025657;28;20052;-82
2022/12/02 09:00:41;;;;;;;;;;;1.90;99.90;;;;;;5010362;28;20542;-83
2022/12/02 09:03:08;;;;;;;0.68;0.68;;;1.90;99.90;;;;;;5009250;28;19925;-82
2022/12/02 09:05:35;;;;;;;0.70;0.70;;;1.90;99.90;;;;;;5024280;28;20099;-80
2022/12/02 09:08:01;;;;;;;0.60;0.60;;;1.90;99.90;;;;;;5010689;28;20124;-81
2022/12/02 09:10:27;;;;;;;0.52;0.52;;;1.90;99.90;;;;;;5009734;28;20128;-83
2022/12/02 09:12:53;;;;;;;0.60;0.60;;;1.90;99.90;;;;;;5016859;28;20075;-82
2022/12/02 09:15:20;;;;;;;0.60;0.60;;;1.90;99.90;;;;;;5005258;28;20031;-81
2022/12/02 09:17:48;;;;;;;0.60;0.60;;;1.80;99.90;;;;;;5026680;28;20053;-82
2022/12/02 09:20:16;;;;;;;0.60;0.60;;;1.80;99.90;;;;;;5028499;28;20130;-83
2022/12/02 09:22:44;;;;;;;2.20;2.10;;;1.80;99.90;;;;;;5016256;28;20053;-83
2022/12/02 09:25:10;;;;;;;0.60;0.60;;;1.80;99.90;;;;;;5013795;28;20053;-81
2022/12/02 09:27:37;;;;;;;0.68;0.68;;;1.70;99.90;;;;;;5010743;28;20064;-83
2022/12/02 09:30:03;;;;;;;;;;;1.70;99.90;;;;;;5007605;28;20092;-83
2022/12/02 09:32:29;;;;;;;0.57;0.57;;;1.70;99.90;;;;;;5012461;28;20417;-82
2022/12/02 09:34:58;;;;;;;0.70;0.70;;;1.70;99.90;;;;;;5011835;28;20864;-81
2022/12/02 09:37:23;;;;;;;1.02;1.02;;;1.70;99.90;;;;;;5013631;28;20124;-83
2022/12/02 09:39:50;;;;;;;0.70;0.70;;;1.80;99.90;;;;;;4996005;28;20050;-82
2022/12/02 09:42:18;;;;;;;0.60;0.60;;;1.70;99.90;;;;;;5010260;28;20041;-83
2022/12/02 09:44:46;;;;;;;0.90;0.90;;;2.00;99.90;;;;;;4995400;28;20487;-83
2022/12/02 09:47:12;;;;;;;0.73;0.73;;;1.80;99.90;;;;;;5009992;28;20045;-82
2022/12/02 09:49:39;;;;;;;0.80;0.80;;;2.50;99.90;;;;;;5013582;28;20548;-83
2022/12/02 09:52:12;;;;;;;0.70;0.70;;;1.90;99.90;;;;;;4980524;28;20438;-81
2022/12/02 09:54:38;;;;;;;1.73;1.58;;;2.30;99.90;;;;;;5028327;28;20081;-83
2022/12/02 09:57:10;;;;;;;0.70;0.70;;;2.40;99.90;;;;;;5008822;28;20058;-83
2022/12/02 09:59:35;;;;;;;0.60;0.60;;;2.10;99.90;;;;;;5023706;28;20036;-81
2022/12/02 10:02:01;;;;;;;0.70;0.70;;;2.10;99.90;;;;;;5008138;28;20034;-84
2022/12/02 10:04:27;;;;;;;0.60;0.60;;;2.20;99.90;;;;;;5007768;28;20154;-81
2022/12/02 10:06:53;;;;;;;0.57;0.57;;;2.30;99.90;;;;;;4991981;28;20034;-83
2022/12/02 10:09:28;;;;;;;1.52;1.42;;;2.70;99.90;;;;;;5012082;28;20037;-82
2022/12/02 10:11:54;;;;;;;0.60;0.60;;;2.60;99.90;;;;;;5009993;28;20029;-81
2022/12/02 10:14:20;;;;;;;0.70;0.70;;;2.50;99.90;;;;;;5012496;28;20048;-82
2022/12/02 10:16:46;;;;;;;0.85;0.85;;;2.60;99.90;;;;;;5006806;28;20076;-84
2022/12/02 10:19:15;;;;;;;;;;;2.70;99.90;;;;;;5007966;28;20034;-82
2022/12/02 10:21:41;;;;;;;0.60;0.60;;;2.50;99.90;;;;;;5014051;28;19924;-81
2022/12/02 10:24:10;;;;;;;0.70;0.70;;;2.50;99.90;;;;;;5015386;28;20048;-83
2022/12/02 10:26:46;;;;;;;0.70;0.70;;;2.50;99.90;;;;;;5021846;28;20085;-82
2022/12/02 10:29:27;;;;;;;0.70;0.70;;;2.40;99.90;;;;;;5033969;28;20053;-82
2022/12/02 10:31:57;;;;;;;0.63;0.63;;;2.40;99.90;;;;;;5028880;28;20709;-82
2022/12/02 10:34:25;;;;;;;0.70;0.70;;;2.50;99.90;;;;;;5008391;28;21994;-83
2022/12/02 10:36:53;;;;;;;0.70;0.70;;;2.50;99.90;;;;;;5008765;28;20179;-82
2022/12/02 10:39:27;;;;;;;2.05;1.50;;;2.50;99.90;;;;;;5007743;28;20045;-84
2022/12/02 10:42:07;;;;;;;0.50;0.50;;;2.50;99.90;;;;;;5003871;28;20104;-82
2022/12/02 10:44:36;;;;;;;0.50;0.50;;;2.50;99.90;;;;;;5013952;28;20048;-82
2022/12/02 10:47:13;;;;;;;0.57;0.57;;;2.50;99.90;;;;;;5022765;28;20411;-83
2022/12/02 10:49:45;;;;;;;0.60;0.60;;;2.60;99.90;;;;;;5014218;28;20543;-83
2022/12/02 10:52:13;;;;;;;1.10;1.00;;;2.60;99.90;;;;;;5017395;28;20055;-81
2022/12/02 10:54:43;;;;;;;0.90;0.90;;;2.60;99.90;;;;;;5026908;28;20057;-84
2022/12/02 10:57:31;;;;;;;0.50;0.50;;;2.60;99.90;;;;;;5012334;28;20057;-81
2022/12/02 11:00:01;;;;;;;1.02;1.02;;;2.60;99.90;;;;;;5008636;28;20049;-83
2022/12/02 11:02:38;;;;;;;0.60;0.60;;;2.60;99.90;;;;;;5026407;28;20049;-83
2022/12/02 11:05:14;;;;;;;1.05;1.05;;;2.70;99.90;;;;;;5027531;28;20117;-82
2022/12/02 11:07:40;;;;;;;0.90;0.90;;;2.70;99.90;;;;;;5005034;28;20144;-84
2022/12/02 11:10:17;;;;;;;0.70;0.70;;;3.30;99.90;;;;;;5015786;28;20049;-84
2022/12/02 11:13:05;;;;;;;0.60;0.60;;;2.80;99.90;;;;;;5000637;28;20050;-83
2022/12/02 11:15:44;;;;;;;0.50;0.50;;;2.80;99.90;;;;;;4969853;28;20045;-83
2022/12/02 11:18:24;;;;;;;0.75;0.75;;;2.90;99.90;;;;;;5021299;28;20046;-82
2022/12/02 11:20:54;;;;;;;0.70;0.70;;;2.90;99.90;;;;;;5006727;28;20049;-82
2022/12/02 11:23:28;;;;;;;0.70;0.70;;;2.90;99.90;;;;;;4990916;28;20044;-84
2022/12/02 11:25:57;;;;;;;0.55;0.55;;;2.90;99.90;;;;;;5011186;28;21012;-82
2022/12/02 11:28:29;;;;;;;0.63;0.63;;;2.90;99.90;;;;;;5003231;28;20058;-82
2022/12/02 11:31:10;;;;;;;0.60;0.60;;;3.00;99.90;;;;;;4990471;28;20054;-81
2022/12/02 11:33:48;;;;;;;0.70;0.70;;;4.00;99.90;;;;;;4988394;28;20046;-84
2022/12/02 11:36:22;;;;;;;0.82;0.82;;;3.70;99.90;;;;;;4989115;28;20496;-82
2022/12/02 11:38:51;;;;;;;1.70;1.65;;;3.10;99.90;;;;;;4989012;28;20053;-82
2022/12/02 11:41:46;;;;;;;0.55;0.55;;;3.10;99.90;;;;;;4990791;28;20042;-83
2022/12/02 11:44:23;;;;;;;0.73;0.73;;;3.10;99.90;;;;;;4984831;28;20065;-84
2022/12/02 11:46:57;;;;;;;0.68;0.68;;;3.10;99.90;;;;;;4995231;28;20038;-82
2022/12/02 11:49:30;;;;;;;0.88;0.88;;;3.10;99.90;;;;;;4995295;28;20046;-83
2022/12/02 11:52:04;;;;;;;0.60;0.60;;;3.10;99.90;;;;;;4992327;28;21036;-83
2022/12/02 11:54:34;;;;;;;1.15;1.15;;;3.90;99.90;;;;;;4999903;28;20050;-81
2022/12/02 11:57:00;;;;;;;0.60;0.60;;;3.10;99.90;;;;;;5001232;28;20042;-82
2022/12/02 11:59:28;;;;;;;0.40;0.40;;;3.10;99.90;;;;;;4992338;28;20095;-82
2022/12/02 12:02:17;;;;;;;0.68;0.68;;;3.10;99.90;;;;;;4987152;28;20042;-81
2022/12/02 12:04:44;;;;;;;0.52;0.52;;;3.10;99.90;;;;;;4988430;28;20077;-82
2022/12/02 12:07:10;;;;;;;0.90;0.90;;;3.10;99.90;;;;;;4973735;28;20058;-80
2022/12/02 12:09:36;;;;;;;0.63;0.63;;;3.20;99.90;;;;;;4975920;28;20603;-81
2022/12/02 12:12:16;;;;;;;1.95;1.85;;;3.20;99.90;;;;;;4996352;28;20042;-81
2022/12/02 12:14:57;;;;;;;0.70;0.70;;;3.40;99.90;;;;;;4993194;28;20043;-83
2022/12/02 12:17:38;;;;;;;1.05;1.05;;;3.10;99.90;;;;;;4998403;28;20061;-82
2022/12/02 12:20:25;;;;;;;4.53;2.95;;;3.00;99.90;;;;;;4975585;28;20030;-85
2022/12/02 12:22:51;;;;;;;0.70;0.70;;;3.00;99.90;;;;;;5016830;28;20133;-83
2022/12/02 12:25:40;;;;;;;0.60;0.60;;;3.00;99.90;;;;;;5029492;28;20042;-85
2022/12/02 12:28:23;;;;;;;0.60;0.60;;;2.90;99.90;;;;;;5031489;28;20081;-82
2022/12/02 12:30:49;;;;;;;1.23;1.23;;;3.10;99.90;;;;;;5042807;28;20091;-85
2022/12/02 12:33:14;;;;;;;0.65;0.65;;;2.90;99.90;;;;;;5004397;28;20041;-85
2022/12/02 12:35:40;;;;;;;1.65;1.45;;;2.80;99.90;;;;;;5037565;28;20043;-85
2022/12/02 12:38:06;;;;;;;0.60;0.60;;;3.40;99.90;;;;;;5002744;28;20041;-85
2022/12/02 12:40:32;;;;;;;0.70;0.70;;;2.80;99.90;;;;;;4986526;28;20084;-85
2022/12/02 12:42:58;;;;;;;1.00;1.00;;;2.70;99.90;;;;;;5033863;28;20037;-85
2022/12/02 12:45:23;;;;;;;0.90;0.90;;;2.70;99.90;;;;;;5007434;28;20041;-84
2022/12/02 12:47:49;;;;;;;2.45;2.25;;;2.70;99.90;;;;;;5022555;28;20047;-84
2022/12/02 12:50:15;;;;;;;0.70;0.70;;;2.60;99.90;;;;;;5022242;28;20045;-84
2022/12/02 12:52:40;;;;;;;0.70;0.70;;;2.60;99.90;;;;;;5022260;28;20120;-84
2022/12/02 12:55:06;;;;;;;0.70;0.70;;;2.50;99.90;;;;;;5019934;28;20099;-84
2022/12/02 12:57:32;;;;;;;0.70;0.70;;;2.50;99.90;;;;;;5033344;28;20095;-85
2022/12/02 12:59:57;;;;;;;0.60;0.60;;;2.50;99.90;;;;;;5016595;28;20033;-83
2022/12/02 13:02:23;;;;;;;0.70;0.70;;;2.50;99.90;;;;;;5020695;28;20540;-83
2022/12/02 13:04:50;;;;;;;0.68;0.68;;;2.40;99.90;;;;;;5000044;28;20117;-84
2022/12/02 13:07:15;;;;;;;0.80;0.80;;;3.40;99.90;;;;;;5019921;28;20087;-83
2022/12/02 13:09:41;;;;;;;1.10;1.00;;;2.50;99.90;;;;;;5030291;28;20717;-84
2022/12/02 13:12:08;;;;;;;12.40;4.32;;;2.90;99.90;;;;;;5014623;28;20073;-84
2022/12/02 13:14:33;;;;;;;0.70;0.70;;;2.40;99.90;;;;;;5013219;28;20069;-85